Larimers Corner, Washington
Current Conditions -  °F | °C
As of 2:53 AM on Friday 24 Oct 2014 (Local Time) from KPAE Reporting Station
Overcast Overcast  
Wind Chill: 45°   Ceiling: 6000
Heat Index: 49°   Visibility: 10mi
Dew Point: 44°   Wind: 8mph
Humidity: 83%   Direction: 150°SSE
Pressure: 30.02"   Gusts: NA
Location:  47.9468°N, 122.012°W
Report Text: KPAE 240953Z AUTO 15007KT 10SM BKN060 OVC080 09/07 A3002 RMK AO2 SLP167 T00940067
Loading
Personal Weather Stations






























Interactive Weather Map
Tropical Storm Tracking
New forecast layout! Learn more

10-Day Weather Forecast

Advertisements
Track Severe Weather on mobile